sensor_id;sensor_type;location;lat;lon;timestamp;P1;durP1;ratioP1;P2;durP2;ratioP2
1651;SDS011;823;49.028;8.454;2022-08-19T00:00:50;22.70;;;13.23;;
1651;SDS011;823;49.028;8.454;2022-08-19T00:05:50;22.17;;;13.15;;
1651;SDS011;823;49.028;8.454;2022-08-19T00:10:50;23.08;;;12.85;;
1651;SDS011;823;49.028;8.454;2022-08-19T00:15:51;16.63;;;12.17;;
1651;SDS011;823;49.028;8.454;2022-08-19T00:20:51;21.43;;;12.50;;
1651;SDS011;823;49.028;8.454;2022-08-19T00:25:52;21.97;;;12.70;;
1651;SDS011;823;49.028;8.454;2022-08-19T00:30:53;22.20;;;12.90;;
1651;SDS011;823;49.028;8.454;2022-08-19T00:35:54;21.30;;;12.70;;
1651;SDS011;823;49.028;8.454;2022-08-19T00:40:55;22.37;;;12.70;;
1651;SDS011;823;49.028;8.454;2022-08-19T00:45:56;18.00;;;11.97;;
1651;SDS011;823;49.028;8.454;2022-08-19T00:50:56;22.07;;;11.30;;
1651;SDS011;823;49.028;8.454;2022-08-19T00:55:58;21.37;;;12.47;;
1651;SDS011;823;49.028;8.454;2022-08-19T01:01:01;19.67;;;12.17;;
1651;SDS011;823;49.028;8.454;2022-08-19T01:06:03;20.40;;;13.03;;
1651;SDS011;823;49.028;8.454;2022-08-19T01:11:05;23.93;;;12.43;;
1651;SDS011;823;49.028;8.454;2022-08-19T01:16:08;19.80;;;12.43;;
1651;SDS011;823;49.028;8.454;2022-08-19T01:21:13;20.20;;;12.60;;
1651;SDS011;823;49.028;8.454;2022-08-19T01:26:43;19.33;;;11.60;;
1651;SDS011;823;49.028;8.454;2022-08-19T01:31:44;18.00;;;12.57;;
1651;SDS011;823;49.028;8.454;2022-08-19T01:36:46;22.67;;;13.10;;
1651;SDS011;823;49.028;8.454;2022-08-19T01:41:49;19.37;;;12.50;;
1651;SDS011;823;49.028;8.454;2022-08-19T01:46:50;20.07;;;13.43;;
1651;SDS011;823;49.028;8.454;2022-08-19T01:51:52;21.50;;;12.20;;
1651;SDS011;823;49.028;8.454;2022-08-19T01:56:55;23.37;;;13.30;;
1651;SDS011;823;49.028;8.454;2022-08-19T02:02:04;18.07;;;13.03;;
1651;SDS011;823;49.028;8.454;2022-08-19T02:07:07;18.83;;;13.90;;
1651;SDS011;823;49.028;8.454;2022-08-19T02:12:07;22.83;;;13.13;;
1651;SDS011;823;49.028;8.454;2022-08-19T02:17:08;20.77;;;13.50;;
1651;SDS011;823;49.028;8.454;2022-08-19T02:22:09;24.33;;;13.77;;
1651;SDS011;823;49.028;8.454;2022-08-19T02:27:09;21.08;;;13.38;;
1651;SDS011;823;49.028;8.454;2022-08-19T02:32:09;22.50;;;13.82;;
1651;SDS011;823;49.028;8.454;2022-08-19T02:37:10;23.58;;;14.20;;
1651;SDS011;823;49.028;8.454;2022-08-19T02:42:30;20.50;;;13.60;;
1651;SDS011;823;49.028;8.454;2022-08-19T02:47:31;20.87;;;13.37;;
1651;SDS011;823;49.028;8.454;2022-08-19T02:52:33;21.87;;;13.73;;
1651;SDS011;823;49.028;8.454;2022-08-19T02:57:34;24.20;;;14.40;;
1651;SDS011;823;49.028;8.454;2022-08-19T03:02:35;22.53;;;14.00;;
1651;SDS011;823;49.028;8.454;2022-08-19T03:07:36;26.52;;;14.38;;
1651;SDS011;823;49.028;8.454;2022-08-19T03:12:37;22.07;;;14.47;;
1651;SDS011;823;49.028;8.454;2022-08-19T03:17:38;22.33;;;14.33;;
1651;SDS011;823;49.028;8.454;2022-08-19T03:22:38;26.70;;;14.00;;
1651;SDS011;823;49.028;8.454;2022-08-19T03:27:39;22.33;;;13.90;;
1651;SDS011;823;49.028;8.454;2022-08-19T03:32:39;26.57;;;15.80;;
1651;SDS011;823;49.028;8.454;2022-08-19T03:37:40;29.10;;;15.43;;
1651;SDS011;823;49.028;8.454;2022-08-19T03:42:41;24.60;;;15.67;;
1651;SDS011;823;49.028;8.454;2022-08-19T03:47:42;26.10;;;16.30;;
1651;SDS011;823;49.028;8.454;2022-08-19T03:52:42;30.17;;;16.87;;
1651;SDS011;823;49.028;8.454;2022-08-19T03:57:47;26.27;;;16.57;;
1651;SDS011;823;49.028;8.454;2022-08-19T04:02:48;27.90;;;17.90;;
1651;SDS011;823;49.028;8.454;2022-08-19T04:07:48;27.77;;;17.08;;
1651;SDS011;823;49.028;8.454;2022-08-19T04:12:49;29.23;;;17.83;;
1651;SDS011;823;49.028;8.454;2022-08-19T04:17:49;28.63;;;16.53;;
1651;SDS011;823;49.028;8.454;2022-08-19T04:22:50;30.57;;;18.63;;
1651;SDS011;823;49.028;8.454;2022-08-19T04:27:50;28.43;;;17.53;;
1651;SDS011;823;49.028;8.454;2022-08-19T04:32:50;29.03;;;18.23;;
1651;SDS011;823;49.028;8.454;2022-08-19T04:37:51;28.20;;;18.57;;
1651;SDS011;823;49.028;8.454;2022-08-19T04:42:51;31.87;;;17.53;;
1651;SDS011;823;49.028;8.454;2022-08-19T04:47:54;25.07;;;16.97;;
1651;SDS011;823;49.028;8.454;2022-08-19T04:52:56;32.40;;;16.20;;
1651;SDS011;823;49.028;8.454;2022-08-19T04:57:56;26.40;;;16.00;;
1651;SDS011;823;49.028;8.454;2022-08-19T05:02:56;28.50;;;17.40;;
1651;SDS011;823;49.028;8.454;2022-08-19T05:07:57;33.33;;;17.53;;
1651;SDS011;823;49.028;8.454;2022-08-19T05:12:57;27.93;;;15.80;;
1651;SDS011;823;49.028;8.454;2022-08-19T05:17:57;25.30;;;15.20;;
1651;SDS011;823;49.028;8.454;2022-08-19T05:23:17;28.17;;;16.40;;
1651;SDS011;823;49.028;8.454;2022-08-19T05:28:18;27.50;;;15.90;;
1651;SDS011;823;49.028;8.454;2022-08-19T05:33:19;29.20;;;18.30;;
1651;SDS011;823;49.028;8.454;2022-08-19T05:38:19;33.35;;;18.02;;
1651;SDS011;823;49.028;8.454;2022-08-19T05:43:20;25.83;;;15.77;;
1651;SDS011;823;49.028;8.454;2022-08-19T05:48:21;30.67;;;17.80;;
1651;SDS011;823;49.028;8.454;2022-08-19T05:53:21;30.40;;;17.93;;
1651;SDS011;823;49.028;8.454;2022-08-19T05:58:22;29.60;;;16.40;;
1651;SDS011;823;49.028;8.454;2022-08-19T06:03:23;34.43;;;17.03;;
1651;SDS011;823;49.028;8.454;2022-08-19T06:08:24;29.53;;;17.83;;
1651;SDS011;823;49.028;8.454;2022-08-19T06:13:25;27.03;;;14.63;;
1651;SDS011;823;49.028;8.454;2022-08-19T06:18:25;27.50;;;16.93;;
1651;SDS011;823;49.028;8.454;2022-08-19T06:23:26;28.20;;;16.90;;
1651;SDS011;823;49.028;8.454;2022-08-19T06:28:26;28.17;;;16.77;;
1651;SDS011;823;49.028;8.454;2022-08-19T06:33:26;28.15;;;16.05;;
1651;SDS011;823;49.028;8.454;2022-08-19T06:38:27;25.60;;;15.10;;
1651;SDS011;823;49.028;8.454;2022-08-19T06:43:27;30.00;;;15.80;;
1651;SDS011;823;49.028;8.454;2022-08-19T06:48:27;21.45;;;15.30;;
1651;SDS011;823;49.028;8.454;2022-08-19T06:53:28;21.50;;;14.77;;
1651;SDS011;823;49.028;8.454;2022-08-19T06:58:29;22.83;;;14.20;;
1651;SDS011;823;49.028;8.454;2022-08-19T07:03:32;20.30;;;13.03;;
1651;SDS011;823;49.028;8.454;2022-08-19T07:08:35;22.17;;;14.10;;
1651;SDS011;823;49.028;8.454;2022-08-19T07:13:36;23.83;;;14.47;;
1651;SDS011;823;49.028;8.454;2022-08-19T07:18:37;17.50;;;12.03;;
1651;SDS011;823;49.028;8.454;2022-08-19T07:23:39;18.13;;;11.57;;
1651;SDS011;823;49.028;8.454;2022-08-19T07:28:39;17.90;;;12.10;;
1651;SDS011;823;49.028;8.454;2022-08-19T07:33:40;24.93;;;13.87;;
1651;SDS011;823;49.028;8.454;2022-08-19T07:38:43;26.60;;;11.87;;
1651;SDS011;823;49.028;8.454;2022-08-19T07:43:47;16.57;;;10.93;;
1651;SDS011;823;49.028;8.454;2022-08-19T07:48:48;19.33;;;11.03;;
1651;SDS011;823;49.028;8.454;2022-08-19T07:53:51;18.90;;;11.40;;
1651;SDS011;823;49.028;8.454;2022-08-19T07:58:51;17.43;;;10.90;;
1651;SDS011;823;49.028;8.454;2022-08-19T08:03:52;20.60;;;11.03;;
1651;SDS011;823;49.028;8.454;2022-08-19T08:09:12;16.93;;;10.90;;
1651;SDS011;823;49.028;8.454;2022-08-19T08:14:25;13.33;;;10.10;;
1651;SDS011;823;49.028;8.454;2022-08-19T08:19:30;15.17;;;10.87;;
1651;SDS011;823;49.028;8.454;2022-08-19T08:24:30;17.30;;;10.97;;
1651;SDS011;823;49.028;8.454;2022-08-19T08:29:30;18.00;;;10.00;;
1651;SDS011;823;49.028;8.454;2022-08-19T08:34:31;14.33;;;9.30;;
1651;SDS011;823;49.028;8.454;2022-08-19T08:39:31;12.43;;;9.13;;
1651;SDS011;823;49.028;8.454;2022-08-19T08:44:39;19.77;;;9.03;;
1651;SDS011;823;49.028;8.454;2022-08-19T08:49:43;12.93;;;8.50;;
1651;SDS011;823;49.028;8.454;2022-08-19T08:54:50;13.77;;;8.20;;
1651;SDS011;823;49.028;8.454;2022-08-19T08:59:54;9.90;;;5.90;;
1651;SDS011;823;49.028;8.454;2022-08-19T09:04:57;16.40;;;6.77;;
1651;SDS011;823;49.028;8.454;2022-08-19T09:10:44;12.83;;;6.20;;
1651;SDS011;823;49.028;8.454;2022-08-19T09:15:31;11.00;;;7.47;;
1651;SDS011;823;49.028;8.454;2022-08-19T09:20:36;14.73;;;7.10;;
1651;SDS011;823;49.028;8.454;2022-08-19T09:25:36;10.87;;;7.50;;
1651;SDS011;823;49.028;8.454;2022-08-19T09:30:40;17.90;;;8.53;;
1651;SDS011;823;49.028;8.454;2022-08-19T09:35:41;10.73;;;7.40;;
1651;SDS011;823;49.028;8.454;2022-08-19T09:40:41;12.13;;;7.88;;
1651;SDS011;823;49.028;8.454;2022-08-19T09:45:42;8.77;;;5.90;;
1651;SDS011;823;49.028;8.454;2022-08-19T09:50:42;10.90;;;7.17;;
1651;SDS011;823;49.028;8.454;2022-08-19T09:55:43;9.18;;;5.25;;
1651;SDS011;823;49.028;8.454;2022-08-19T10:00:43;12.20;;;6.10;;
1651;SDS011;823;49.028;8.454;2022-08-19T10:05:45;9.80;;;7.23;;
1651;SDS011;823;49.028;8.454;2022-08-19T10:10:49;11.70;;;7.50;;
1651;SDS011;823;49.028;8.454;2022-08-19T10:15:50;10.97;;;6.70;;
1651;SDS011;823;49.028;8.454;2022-08-19T10:20:52;10.37;;;6.60;;
1651;SDS011;823;49.028;8.454;2022-08-19T10:26:03;8.50;;;6.07;;
1651;SDS011;823;49.028;8.454;2022-08-19T10:31:06;8.50;;;5.27;;
1651;SDS011;823;49.028;8.454;2022-08-19T10:36:11;8.10;;;5.40;;
1651;SDS011;823;49.028;8.454;2022-08-19T10:41:19;8.03;;;5.60;;
1651;SDS011;823;49.028;8.454;2022-08-19T10:46:25;11.97;;;6.27;;
1651;SDS011;823;49.028;8.454;2022-08-19T10:51:26;10.30;;;6.93;;
1651;SDS011;823;49.028;8.454;2022-08-19T10:56:45;7.60;;;6.80;;
1651;SDS011;823;49.028;8.454;2022-08-19T11:01:51;9.73;;;6.87;;
1651;SDS011;823;49.028;8.454;2022-08-19T11:06:52;10.80;;;6.83;;
1651;SDS011;823;49.028;8.454;2022-08-19T11:11:52;10.93;;;6.43;;
1651;SDS011;823;49.028;8.454;2022-08-19T11:16:53;8.27;;;5.90;;
1651;SDS011;823;49.028;8.454;2022-08-19T11:21:56;10.70;;;5.70;;
1651;SDS011;823;49.028;8.454;2022-08-19T11:27:00;13.87;;;6.70;;
1651;SDS011;823;49.028;8.454;2022-08-19T11:32:05;9.63;;;6.70;;
1651;SDS011;823;49.028;8.454;2022-08-19T11:37:08;6.80;;;5.87;;
1651;SDS011;823;49.028;8.454;2022-08-19T11:42:09;10.02;;;6.20;;
1651;SDS011;823;49.028;8.454;2022-08-19T11:47:27;7.60;;;5.50;;
1651;SDS011;823;49.028;8.454;2022-08-19T11:52:30;10.40;;;6.33;;
1651;SDS011;823;49.028;8.454;2022-08-19T11:57:30;9.90;;;6.87;;
1651;SDS011;823;49.028;8.454;2022-08-19T12:02:32;10.83;;;6.87;;
1651;SDS011;823;49.028;8.454;2022-08-19T12:07:33;7.37;;;5.87;;
1651;SDS011;823;49.028;8.454;2022-08-19T12:12:34;8.43;;;6.50;;
1651;SDS011;823;49.028;8.454;2022-08-19T12:17:34;8.63;;;6.63;;
1651;SDS011;823;49.028;8.454;2022-08-19T12:22:35;8.97;;;6.53;;
1651;SDS011;823;49.028;8.454;2022-08-19T12:27:37;9.43;;;6.67;;
1651;SDS011;823;49.028;8.454;2022-08-19T12:32:38;9.60;;;5.93;;
1651;SDS011;823;49.028;8.454;2022-08-19T12:37:39;6.70;;;5.47;;
1651;SDS011;823;49.028;8.454;2022-08-19T12:42:42;10.43;;;6.10;;
1651;SDS011;823;49.028;8.454;2022-08-19T12:47:43;6.60;;;5.90;;
1651;SDS011;823;49.028;8.454;2022-08-19T12:52:43;7.90;;;5.90;;
1651;SDS011;823;49.028;8.454;2022-08-19T12:57:44;9.02;;;5.78;;
1651;SDS011;823;49.028;8.454;2022-08-19T13:02:45;6.93;;;5.77;;
1651;SDS011;823;49.028;8.454;2022-08-19T13:07:47;8.13;;;7.00;;
1651;SDS011;823;49.028;8.454;2022-08-19T13:12:49;7.80;;;5.50;;
1651;SDS011;823;49.028;8.454;2022-08-19T13:17:51;7.67;;;5.97;;
1651;SDS011;823;49.028;8.454;2022-08-19T13:22:53;6.87;;;5.80;;
1651;SDS011;823;49.028;8.454;2022-08-19T13:27:54;7.40;;;5.10;;
1651;SDS011;823;49.028;8.454;2022-08-19T13:32:55;7.57;;;5.60;;
1651;SDS011;823;49.028;8.454;2022-08-19T13:38:10;5.70;;;5.10;;
1651;SDS011;823;49.028;8.454;2022-08-19T13:43:12;5.23;;;4.00;;
1651;SDS011;823;49.028;8.454;2022-08-19T13:48:13;5.10;;;3.70;;
1651;SDS011;823;49.028;8.454;2022-08-19T13:53:14;5.43;;;4.07;;
1651;SDS011;823;49.028;8.454;2022-08-19T13:58:15;7.63;;;5.30;;
1651;SDS011;823;49.028;8.454;2022-08-19T14:03:15;5.53;;;4.57;;
1651;SDS011;823;49.028;8.454;2022-08-19T14:08:16;5.63;;;4.30;;
1651;SDS011;823;49.028;8.454;2022-08-19T14:13:18;4.30;;;3.90;;
1651;SDS011;823;49.028;8.454;2022-08-19T14:18:20;5.03;;;3.87;;
1651;SDS011;823;49.028;8.454;2022-08-19T14:23:21;3.83;;;3.42;;
1651;SDS011;823;49.028;8.454;2022-08-19T14:28:22;4.50;;;3.37;;
1651;SDS011;823;49.028;8.454;2022-08-19T14:33:22;2.83;;;2.60;;
1651;SDS011;823;49.028;8.454;2022-08-19T14:38:23;3.90;;;3.20;;
1651;SDS011;823;49.028;8.454;2022-08-19T14:43:23;4.70;;;3.60;;
1651;SDS011;823;49.028;8.454;2022-08-19T14:48:23;5.20;;;3.42;;
1651;SDS011;823;49.028;8.454;2022-08-19T14:53:24;5.20;;;3.55;;
1651;SDS011;823;49.028;8.454;2022-08-19T14:58:24;4.35;;;3.58;;
1651;SDS011;823;49.028;8.454;2022-08-19T15:03:25;3.27;;;2.93;;
1651;SDS011;823;49.028;8.454;2022-08-19T15:08:26;5.90;;;3.73;;
1651;SDS011;823;49.028;8.454;2022-08-19T15:13:28;5.63;;;3.50;;
1651;SDS011;823;49.028;8.454;2022-08-19T15:18:30;3.77;;;3.43;;
1651;SDS011;823;49.028;8.454;2022-08-19T15:23:30;4.07;;;3.67;;
1651;SDS011;823;49.028;8.454;2022-08-19T15:28:31;3.87;;;3.43;;
1651;SDS011;823;49.028;8.454;2022-08-19T15:33:32;3.33;;;3.00;;
1651;SDS011;823;49.028;8.454;2022-08-19T15:38:37;3.93;;;3.33;;
1651;SDS011;823;49.028;8.454;2022-08-19T15:43:40;6.60;;;4.40;;
1651;SDS011;823;49.028;8.454;2022-08-19T15:48:41;5.30;;;4.20;;
1651;SDS011;823;49.028;8.454;2022-08-19T15:53:42;4.53;;;3.63;;
1651;SDS011;823;49.028;8.454;2022-08-19T15:58:42;4.40;;;3.90;;
1651;SDS011;823;49.028;8.454;2022-08-19T16:04:01;5.60;;;3.50;;
1651;SDS011;823;49.028;8.454;2022-08-19T16:09:21;5.13;;;3.60;;
1651;SDS011;823;49.028;8.454;2022-08-19T16:14:24;6.20;;;4.10;;
1651;SDS011;823;49.028;8.454;2022-08-19T16:19:24;5.00;;;3.43;;
1651;SDS011;823;49.028;8.454;2022-08-19T16:24:25;4.13;;;3.37;;
1651;SDS011;823;49.028;8.454;2022-08-19T16:29:27;8.43;;;3.70;;
1651;SDS011;823;49.028;8.454;2022-08-19T16:34:28;9.27;;;3.70;;
1651;SDS011;823;49.028;8.454;2022-08-19T16:39:28;7.13;;;3.43;;
1651;SDS011;823;49.028;8.454;2022-08-19T16:44:29;5.33;;;3.60;;
1651;SDS011;823;49.028;8.454;2022-08-19T16:49:29;6.70;;;3.55;;
1651;SDS011;823;49.028;8.454;2022-08-19T16:54:30;5.23;;;3.37;;
1651;SDS011;823;49.028;8.454;2022-08-19T16:59:31;5.63;;;4.60;;
1651;SDS011;823;49.028;8.454;2022-08-19T17:04:33;5.10;;;4.27;;
1651;SDS011;823;49.028;8.454;2022-08-19T17:09:33;5.57;;;4.07;;
1651;SDS011;823;49.028;8.454;2022-08-19T17:14:34;7.20;;;3.42;;
1651;SDS011;823;49.028;8.454;2022-08-19T17:19:34;4.32;;;3.60;;
1651;SDS011;823;49.028;8.454;2022-08-19T17:24:35;4.83;;;3.80;;
1651;SDS011;823;49.028;8.454;2022-08-19T17:29:35;5.67;;;4.00;;
1651;SDS011;823;49.028;8.454;2022-08-19T17:34:36;4.32;;;3.47;;
1651;SDS011;823;49.028;8.454;2022-08-19T17:39:37;4.43;;;3.73;;
1651;SDS011;823;49.028;8.454;2022-08-19T17:44:38;11.60;;;4.57;;
1651;SDS011;823;49.028;8.454;2022-08-19T17:49:39;5.90;;;5.23;;
1651;SDS011;823;49.028;8.454;2022-08-19T17:54:40;6.80;;;5.27;;
1651;SDS011;823;49.028;8.454;2022-08-19T17:59:40;9.93;;;5.60;;
1651;SDS011;823;49.028;8.454;2022-08-19T18:04:41;6.90;;;5.43;;
1651;SDS011;823;49.028;8.454;2022-08-19T18:09:41;9.17;;;6.10;;
1651;SDS011;823;49.028;8.454;2022-08-19T18:14:41;10.23;;;6.00;;
1651;SDS011;823;49.028;8.454;2022-08-19T18:19:42;10.20;;;5.47;;
1651;SDS011;823;49.028;8.454;2022-08-19T18:24:43;8.40;;;5.40;;
1651;SDS011;823;49.028;8.454;2022-08-19T18:29:44;6.63;;;5.00;;
1651;SDS011;823;49.028;8.454;2022-08-19T18:34:44;5.40;;;4.57;;
1651;SDS011;823;49.028;8.454;2022-08-19T18:39:45;9.68;;;4.55;;
1651;SDS011;823;49.028;8.454;2022-08-19T18:45:04;6.23;;;5.00;;
1651;SDS011;823;49.028;8.454;2022-08-19T18:50:24;7.03;;;4.83;;
1651;SDS011;823;49.028;8.454;2022-08-19T18:55:24;14.80;;;4.15;;
1651;SDS011;823;49.028;8.454;2022-08-19T19:00:28;6.47;;;4.33;;
1651;SDS011;823;49.028;8.454;2022-08-19T19:05:29;7.53;;;3.60;;
1651;SDS011;823;49.028;8.454;2022-08-19T19:10:29;7.05;;;4.30;;
1651;SDS011;823;49.028;8.454;2022-08-19T19:15:29;4.70;;;3.70;;
1651;SDS011;823;49.028;8.454;2022-08-19T19:20:30;5.20;;;3.90;;
1651;SDS011;823;49.028;8.454;2022-08-19T19:25:31;3.90;;;3.37;;
1651;SDS011;823;49.028;8.454;2022-08-19T19:30:33;8.00;;;3.60;;
1651;SDS011;823;49.028;8.454;2022-08-19T19:35:33;5.00;;;3.37;;
1651;SDS011;823;49.028;8.454;2022-08-19T19:40:34;5.97;;;4.40;;
1651;SDS011;823;49.028;8.454;2022-08-19T19:45:34;7.43;;;5.23;;
1651;SDS011;823;49.028;8.454;2022-08-19T19:50:36;5.47;;;3.80;;
1651;SDS011;823;49.028;8.454;2022-08-19T19:55:37;4.47;;;3.37;;
1651;SDS011;823;49.028;8.454;2022-08-19T20:00:40;4.40;;;3.00;;
1651;SDS011;823;49.028;8.454;2022-08-19T20:05:40;4.00;;;3.27;;
1651;SDS011;823;49.028;8.454;2022-08-19T20:10:41;4.30;;;3.23;;
1651;SDS011;823;49.028;8.454;2022-08-19T20:15:42;14.50;;;4.10;;
1651;SDS011;823;49.028;8.454;2022-08-19T20:20:43;5.50;;;3.70;;
1651;SDS011;823;49.028;8.454;2022-08-19T20:25:49;6.20;;;3.60;;
1651;SDS011;823;49.028;8.454;2022-08-19T20:30:50;3.97;;;3.00;;
1651;SDS011;823;49.028;8.454;2022-08-19T20:35:50;5.60;;;3.10;;
1651;SDS011;823;49.028;8.454;2022-08-19T20:40:51;7.10;;;2.70;;
1651;SDS011;823;49.028;8.454;2022-08-19T20:45:52;5.13;;;2.77;;
1651;SDS011;823;49.028;8.454;2022-08-19T20:50:54;4.30;;;2.80;;
1651;SDS011;823;49.028;8.454;2022-08-19T20:55:57;4.47;;;3.43;;
1651;SDS011;823;49.028;8.454;2022-08-19T21:00:58;6.03;;;2.80;;
1651;SDS011;823;49.028;8.454;2022-08-19T21:06:01;3.77;;;2.43;;
1651;SDS011;823;49.028;8.454;2022-08-19T21:11:03;4.70;;;2.37;;
1651;SDS011;823;49.028;8.454;2022-08-19T21:16:04;4.70;;;2.37;;
1651;SDS011;823;49.028;8.454;2022-08-19T21:21:04;4.70;;;2.57;;
1651;SDS011;823;49.028;8.454;2022-08-19T21:26:05;2.80;;;2.20;;
1651;SDS011;823;49.028;8.454;2022-08-19T21:31:07;4.70;;;2.43;;
1651;SDS011;823;49.028;8.454;2022-08-19T21:36:09;2.27;;;1.77;;
1651;SDS011;823;49.028;8.454;2022-08-19T21:41:09;2.90;;;1.90;;
1651;SDS011;823;49.028;8.454;2022-08-19T21:46:10;2.60;;;1.83;;
1651;SDS011;823;49.028;8.454;2022-08-19T21:51:10;2.80;;;1.40;;
1651;SDS011;823;49.028;8.454;2022-08-19T21:56:11;1.63;;;1.00;;
1651;SDS011;823;49.028;8.454;2022-08-19T22:01:11;2.70;;;1.17;;
1651;SDS011;823;49.028;8.454;2022-08-19T22:06:12;2.90;;;1.23;;
1651;SDS011;823;49.028;8.454;2022-08-19T22:11:12;1.70;;;0.90;;
1651;SDS011;823;49.028;8.454;2022-08-19T22:16:12;1.60;;;1.20;;
1651;SDS011;823;49.028;8.454;2022-08-19T22:21:14;1.63;;;0.87;;
1651;SDS011;823;49.028;8.454;2022-08-19T22:26:14;1.52;;;0.93;;
1651;SDS011;823;49.028;8.454;2022-08-19T22:31:16;1.40;;;1.00;;
1651;SDS011;823;49.028;8.454;2022-08-19T22:36:17;2.03;;;0.93;;
1651;SDS011;823;49.028;8.454;2022-08-19T22:41:18;2.50;;;0.93;;
1651;SDS011;823;49.028;8.454;2022-08-19T22:46:18;1.77;;;0.73;;
1651;SDS011;823;49.028;8.454;2022-08-19T22:51:19;1.40;;;0.80;;
1651;SDS011;823;49.028;8.454;2022-08-19T22:56:45;1.43;;;0.70;;
1651;SDS011;823;49.028;8.454;2022-08-19T23:01:45;2.93;;;0.83;;
1651;SDS011;823;49.028;8.454;2022-08-19T23:06:46;1.60;;;0.80;;
1651;SDS011;823;49.028;8.454;2022-08-19T23:11:46;1.63;;;1.00;;
1651;SDS011;823;49.028;8.454;2022-08-19T23:16:47;2.13;;;1.10;;
1651;SDS011;823;49.028;8.454;2022-08-19T23:21:48;2.27;;;1.17;;
1651;SDS011;823;49.028;8.454;2022-08-19T23:26:49;3.73;;;1.00;;
1651;SDS011;823;49.028;8.454;2022-08-19T23:32:08;3.00;;;0.83;;
1651;SDS011;823;49.028;8.454;2022-08-19T23:37:08;1.20;;;0.73;;
1651;SDS011;823;49.028;8.454;2022-08-19T23:42:09;1.40;;;1.00;;
1651;SDS011;823;49.028;8.454;2022-08-19T23:47:10;2.23;;;1.27;;
1651;SDS011;823;49.028;8.454;2022-08-19T23:52:11;2.13;;;1.23;;
1651;SDS011;823;49.028;8.454;2022-08-19T23:57:11;1.27;;;0.80;;
